Latest Weather Observations for Daly Waters

IDD60801

Issued at 10:01 pm CST Tuesday 3 May 2016 (issued every 30 minutes, with the page automatically refreshed every 10 minutes)

About weather observations | Map of weather stations | Latest weather observations for NT | Other Formats
Station Details ID: 014626 Name: DALY WATERS AIRSTRIP Lat: -16.26 Lon: 133.38 Height: 209.84 m
Data from the previous 72 hours. | See also: Recent months at Daly Waters
Date/Time
CST
Temp
°C
App
Temp
°C
Dew
Point
Rel
Hum
%
Delta-T
°C
Wind Press
QNH
hPa
Press
MSL
hPa
Rain
since 9 am
mm
Dir
 
Spd
km/h
Gust
km/h
Spd
kts
Gust
kts
03/10:00pm 28.6 30.1 18.1 53 6.7 N 7 15 4 8 1015.3 1014.3 0.0
03/09:30pm 28.5 30.6 18.9 56 6.2 ENE 6 9 3 5 1015.4 1014.4 0.0
03/09:00pm 28.1 30.2 19.3 58 5.7 SSE 7 11 4 6 1014.6 1013.6 0.0
03/08:30pm 28.4 30.6 19.1 57 6.1 S 6 7 3 4 1014.2 1013.2 0.0
03/08:00pm 28.0 30.7 19.5 60 5.6 SE 4 6 2 3 1013.8 1012.8 0.0
03/07:30pm 27.5 29.9 19.6 62 5.2 SE 6 9 3 5 1012.9 1011.9 0.0
03/07:00pm 27.6 30.8 19.7 62 5.2 ESE 2 4 1 2 1012.3 1011.3 0.0
03/06:30pm 28.3 31.0 19.5 59 5.8 ESE 4 6 2 3 1012.0 1011.0 0.0
03/06:00pm 28.9 30.8 18.9 54 6.5 ENE 7 13 4 7 1011.6 1010.6 0.0
03/05:30pm 29.3 29.4 18.4 51 7.1 ENE 15 24 8 13 1011.3 1010.3 0.0
03/05:00pm 30.1 31.0 18.5 49 7.5 ENE 11 20 6 11 1010.9 1009.9 0.0
03/04:30pm 29.3 30.6 19.3 55 6.6 NE 11 17 6 9 1010.9 1009.9 0.0
03/04:00pm 31.0 29.8 17.0 43 8.9 ENE 19 30 10 16 1010.9 1009.9 0.0
03/03:30pm 35.3 36.4 17.0 33 11.8 ENE 7 13 4 7 1010.6 1009.6 0.0
03/03:00pm 35.7 36.7 16.9 32 12.2 ENE 7 15 4 8 1010.7 1009.7 0.0
03/02:30pm 35.2 36.4 17.4 34 11.6 NE 7 13 4 7 1011.3 1010.3 0.0
03/02:00pm 34.0 35.5 18.1 39 10.4 SE 7 17 4 9 1012.0 1011.0 0.0
03/01:30pm 33.6 35.7 18.9 41 9.7 E 6 11 3 6 1012.5 1011.5 0.0
03/01:00pm 33.1 35.7 19.2 43 9.2 SE 4 6 2 3 1013.0 1012.0 0.0
03/12:30pm 33.0 35.5 19.8 45 8.8 ESE 6 9 3 5 1013.3 1012.4 0.0
03/12:00pm 32.8 35.9 20.3 47 8.4 ESE 4 9 2 5 1013.9 1012.9 0.0
03/11:30am 32.3 35.1 20.5 49 7.9 E 6 13 3 7 1014.7 1013.7 0.0
03/11:00am 31.2 33.9 20.2 52 7.3 ENE 6 11 3 6 1015.0 1014.0 0.0
03/10:30am 30.8 33.7 21.0 56 6.6 ESE 7 13 4 7 1015.3 1014.3 0.0
03/10:00am 30.1 32.8 20.6 56 6.4 ESE 7 13 4 7 1015.6 1014.6 0.0
03/09:30am 29.6 32.1 21.0 60 5.8 ESE 9 15 5 8 1015.5 1014.5 0.0
03/09:00am 29.0 31.3 20.7 61 5.5 ESE 9 13 5 7 1015.4 1014.4 0.0
03/08:30am 27.5 29.9 20.8 67 4.5 SE 9 19 5 10 1015.5 1014.5 0.0
03/08:00am 26.5 29.9 21.7 75 3.2 SE 6 13 3 7 1015.2 1014.2 0.0
03/07:30am 23.9 28.2 21.2 85 1.8 CALM 0 0 0 0 1014.8 1013.8 0.0
03/07:00am 23.1 26.9 20.2 84 1.9 CALM 0 0 0 0 1014.5 1013.5 0.0
03/06:30am 23.6 26.9 20.7 84 1.9 SE 4 6 2 3 1014.1 1013.1 0.0
03/06:00am 23.6 26.1 21.1 86 1.7 SSE 9 17 5 9 1013.7 1012.7 0.0
03/05:30am 22.7 25.5 20.4 87 1.5 SSE 6 6 3 3 1013.1 1012.2 0.0
03/05:00am 22.6 26.2 19.8 84 1.8 CALM 0 0 0 0 1012.8 1011.8 0.0
03/04:30am 22.9 26.7 20.1 84 1.8 CALM 0 0 0 0 1013.0 1012.0 0.0
03/04:00am 23.3 27.1 20.2 83 2.0 CALM 0 0 0 0 1013.1 1012.2 0.0
03/03:30am 23.5 27.3 20.2 82 2.2 CALM 0 0 0 0 1013.2 1012.3 0.0
03/03:00am 23.9 27.3 20.2 80 2.4 N 2 4 1 2 1013.1 1012.2 0.0
03/02:30am 24.2 28.0 20.1 78 2.7 CALM 0 0 0 0 1013.1 1012.2 0.0
03/02:00am 25.2 28.3 20.2 74 3.3 NNE 4 4 2 2 1013.3 1012.4 0.0
03/01:30am 26.1 29.6 20.4 71 3.8 NNE 2 4 1 2 1013.4 1012.5 0.0
03/01:00am 26.8 30.0 20.6 69 4.1 N 4 9 2 5 1013.7 1012.7 0.0
03/12:30am 27.0 29.7 20.3 66 4.4 N 6 9 3 5 1013.7 1012.7 0.0
03/12:00am 27.3 29.9 20.1 64 4.7 N 6 9 3 5 1013.8 1012.8 0.0
 
Date/Time
CST
Temp
°C
App
Temp
°C
Dew
Point
Rel
Hum
%
Delta-T
°C
Wind Press
QNH
hPa
Press
MSL
hPa
Rain
since 9 am
mm
Dir
 
Spd
km/h
Gust
km/h
Spd
kts
Gust
kts
02/11:30pm 27.5 30.0 20.3 65 4.8 NNE 7 13 4 7 1013.9 1012.9 0.0
02/11:00pm 27.2 30.5 20.8 68 4.3 NNE 4 7 2 4 1014.1 1013.1 0.0
02/10:30pm 26.8 31.2 21.3 72 3.7 CALM 0 0 0 0 1014.0 1013.0 0.0
02/10:00pm 26.7 31.2 21.5 73 3.5 CALM 0 0 0 0 1014.0 1013.0 0.0
02/09:30pm 26.1 29.4 20.7 72 3.6 NNE 4 6 2 3 1013.9 1012.9 0.0
02/09:00pm 26.0 29.6 20.6 72 3.6 NE 2 4 1 2 1013.9 1012.9 0.0
02/08:30pm 26.3 30.2 20.4 70 3.9 CALM 0 0 0 0 1013.6 1012.6 0.0
02/08:00pm 26.6 30.4 20.2 68 4.2 CALM 0 0 0 0 1012.9 1011.9 0.0
02/07:30pm 27.3 31.1 20.1 64 4.7 CALM 0 0 0 0 1012.4 1011.4 0.0
02/07:00pm 28.0 31.6 19.8 61 5.4 CALM 0 0 0 0 1012.0 1011.0 0.0
02/06:30pm 29.4 32.2 19.7 56 6.4 SE 4 4 2 2 1011.7 1010.7 0.0
02/06:00pm 30.9 33.3 18.9 48 7.9 ENE 4 6 2 3 1011.3 1010.3 0.0
02/05:30pm 31.8 33.6 18.7 45 8.6 NNE 7 11 4 6 1011.0 1010.0 0.0
02/05:00pm 32.0 32.3 17.9 43 9.1 NE 13 22 7 12 1010.7 1009.7 0.0
02/04:30pm 34.7 35.8 17.9 37 11.0 NE 9 17 5 9 1010.4 1009.4 0.0
02/04:00pm 35.7 36.5 17.4 33 11.9 NE 9 15 5 8 1010.4 1009.4 0.0
02/03:30pm 36.7 38.1 17.8 32 12.4 N 7 15 4 8 1010.6 1009.6 0.0
02/03:00pm 36.3 37.5 17.4 32 12.3 NE 7 17 4 9 1010.9 1009.9 0.0
02/02:30pm 36.7 37.2 18.3 34 12.2 NNE 13 20 7 11 1011.3 1010.3 0.0
02/02:00pm 36.0 36.2 17.7 34 12.0 NE 13 22 7 12 1011.6 1010.6 0.0
02/01:30pm 36.0 36.8 17.2 33 12.2 E 9 20 5 11 1011.8 1010.8 0.0
02/01:00pm 35.1 35.7 16.9 34 11.7 NE 9 24 5 13 1012.4 1011.4 0.0
02/12:30pm 34.3 34.6 17.1 36 11.1 NE 11 20 6 11 1012.9 1011.9 0.0
02/12:00pm 34.4 35.5 18.8 39 10.3 NE 11 22 6 12 1013.4 1012.5 0.0
02/11:30am 33.6 35.3 19.3 43 9.5 NNE 9 15 5 8 1013.9 1012.9 0.0
02/11:00am 33.5 35.5 19.9 44 9.1 NE 9 19 5 10 1014.3 1013.3 0.0
02/10:30am 31.9 33.6 20.2 50 7.8 NNE 11 19 6 10 1014.5 1013.5 0.0
02/10:00am 31.9 34.4 21.1 52 7.3 NNE 9 15 5 8 1014.6 1013.6 0.0
02/09:30am 30.5 33.0 21.0 57 6.4 NNE 9 15 5 8 1014.5 1013.5 0.0
02/09:00am 29.6 32.7 21.5 61 5.5 NE 7 11 4 6 1014.6 1013.6 0.0
02/08:30am 28.3 31.8 21.8 68 4.4 NE 6 9 3 5 1014.3 1013.3 0.0
02/08:00am 26.5 30.2 21.5 74 3.4 ENE 4 7 2 4 1014.1 1013.1 0.0
02/07:30am 23.0 27.1 20.7 87 1.5 CALM 0 0 0 0 1013.9 1012.9 0.0
02/07:00am 22.0 24.6 19.2 84 1.8 E 4 4 2 2 1013.2 1012.3 0.0
02/06:30am 22.2 24.8 19.2 83 1.9 SE 4 6 2 3 1013.1 1012.2 0.0
02/06:00am 22.6 26.0 19.4 82 2.1 CALM 0 0 0 0 1012.7 1011.7 0.0
02/05:30am 23.2 26.8 19.8 81 2.2 CALM 0 0 0 0 1012.5 1011.5 0.0
02/05:00am 23.8 27.6 20.1 80 2.4 CALM 0 0 0 0 1012.1 1011.1 0.0
02/04:30am 24.2 28.1 20.3 79 2.6 CALM 0 0 0 0 1012.1 1011.1 0.0
02/04:00am 24.7 28.6 20.4 77 2.8 CALM 0 0 0 0 1012.1 1011.1 0.0
02/03:30am 25.1 28.9 20.1 74 3.3 CALM 0 0 0 0 1012.1 1011.1 0.0
02/03:00am 26.0 29.5 20.3 71 3.8 N 2 4 1 2 1012.2 1011.2 0.0
02/02:30am 26.4 29.5 20.3 69 4.0 NE 4 6 2 3 1012.2 1011.2 0.0
02/02:00am 26.8 30.0 20.4 68 4.2 NNE 4 6 2 3 1012.5 1011.5 0.0
02/01:30am 27.0 30.1 20.3 66 4.4 NE 4 7 2 4 1012.8 1011.8 0.0
02/01:00am 27.0 29.7 20.3 66 4.4 NE 6 9 3 5 1012.9 1011.9 0.0
02/12:30am 27.4 30.6 20.5 66 4.6 NNE 4 6 2 3 1013.2 1012.3 0.0
02/12:00am 27.4 30.2 20.5 66 4.6 NNE 6 9 3 5 1013.6 1012.6 0.0
 
Date/Time
CST
Temp
°C
App
Temp
°C
Dew
Point
Rel
Hum
%
Delta-T
°C
Wind Press
QNH
hPa
Press
MSL
hPa
Rain
since 9 am
mm
Dir
 
Spd
km/h
Gust
km/h
Spd
kts
Gust
kts
01/11:30pm 27.4 30.8 20.2 65 4.8 NNE 2 4 1 2 1013.7 1012.7 0.0
01/11:00pm 27.5 30.9 20.1 64 4.9 NNE 2 4 1 2 1013.9 1012.9 0.0
01/10:30pm 27.7 31.6 20.3 64 4.9 CALM 0 0 0 0 1014.0 1013.0 0.0
01/10:00pm 27.8 31.0 19.8 61 5.3 NE 2 4 1 2 1014.0 1013.0 0.0
01/09:30pm 28.2 31.0 19.7 60 5.6 ENE 4 7 2 4 1013.9 1012.9 0.0
01/09:00pm 28.4 30.9 20.2 61 5.4 ENE 7 9 4 5 1013.7 1012.7 0.0
01/08:30pm 27.7 30.4 20.3 64 4.9 ENE 6 7 3 4 1013.7 1012.7 0.0
01/08:00pm 27.1 30.2 19.4 62 5.0 NE 2 6 1 3 1013.2 1012.3 0.0
01/07:30pm 27.9 30.7 19.7 61 5.4 E 4 6 2 3 1012.7 1011.7 0.0
01/07:00pm 28.6 31.5 19.8 59 5.8 NE 4 6 2 3 1012.4 1011.4 0.0
01/06:30pm 29.1 31.4 19.4 55 6.4 NE 6 7 3 4 1012.0 1011.0 0.0
01/06:00pm 30.1 31.4 18.5 49 7.5 NNE 9 19 5 10 1011.7 1010.7 0.0
01/05:30pm 31.5 31.2 19.2 48 8.1 NNE 19 32 10 17 1011.5 1010.5 0.0
01/05:00pm 34.6 36.3 18.6 38 10.5 NNE 7 11 4 6 1010.5 1009.5 0.0
01/04:30pm 34.1 35.5 18.6 40 10.2 NNE 9 15 5 8 1010.5 1009.5 0.0
01/04:00pm 34.9 36.8 18.9 39 10.6 NE 7 13 4 7 1010.5 1009.5 0.0
01/03:30pm 34.8 35.5 18.0 37 11.0 ENE 11 24 6 13 1010.6 1009.6 0.0
01/03:00pm 35.2 35.5 17.0 34 11.8 ENE 11 17 6 9 1010.7 1009.7 0.0
01/02:30pm 34.9 34.9 16.2 32 11.9 E 11 22 6 12 1011.0 1010.0 0.0
01/02:00pm 37.1 36.7 17.1 30 13.0 ENE 15 24 8 13 1011.3 1010.3 0.0
01/01:30pm 36.0 36.0 17.2 33 12.2 ENE 13 24 7 13 1011.7 1010.7 0.0
01/01:00pm 36.4 35.6 17.0 31 12.6 ENE 17 28 9 15 1012.1 1011.1 0.0
01/12:30pm 36.6 37.0 18.2 34 12.1 ENE 13 26 7 14 1012.5 1011.5 0.0
01/12:00pm 35.7 35.6 17.9 35 11.7 NE 15 24 8 13 1013.0 1012.0 0.0
01/11:30am 35.1 35.5 18.2 36 11.1 NE 13 20 7 11 1013.6 1012.6 0.0
01/11:00am 34.6 35.0 18.2 37 10.7 E 13 20 7 11 1013.9 1012.9 0.0
01/10:30am 33.4 34.8 19.5 44 9.2 NE 11 20 6 11 1014.2 1013.2 0.0
01/10:00am 32.0 33.8 20.3 50 7.8 ENE 11 19 6 10 1014.2 1013.2 0.0
01/09:30am 31.8 33.6 20.4 51 7.6 ENE 11 19 6 10 1014.2 1013.2 0.0
01/09:00am 30.3 32.3 20.8 56 6.4 ENE 11 17 6 9 1014.3 1013.0 0.0
01/08:30am 29.6 33.6 22.1 64 5.1 ESE 4 9 2 5 1014.2 1012.9 0.0
01/08:00am 26.6 31.1 21.6 74 3.4 CALM 0 2 0 1 1014.1 1012.8 0.0
01/07:30am 25.2 29.5 21.1 78 2.7 CALM 0 0 0 0 1013.9 1012.6 0.0
01/07:00am 24.8 29.0 20.9 79 2.6 CALM 0 4 0 2 1013.7 1012.4 0.0
01/06:30am 24.6 28.7 20.7 79 2.6 CALM 0 0 0 0 1013.6 1012.3 0.0
01/06:00am 25.2 29.2 20.5 75 3.1 CALM 0 0 0 0 1013.4 1012.2 0.0
01/05:30am 25.3 29.3 20.5 75 3.2 CALM 0 0 0 0 1013.2 1012.0 0.0
01/05:00am 25.4 29.4 20.6 75 3.2 CALM 0 0 0 0 1012.8 1011.6 0.0
01/04:30am 25.2 29.0 20.2 74 3.3 CALM 0 0 0 0 1012.7 1011.4 0.0
01/04:00am 25.5 29.4 20.3 73 3.4 CALM 0 0 0 0 1012.4 1011.1 0.0
01/03:30am 25.4 29.3 20.4 74 3.3 CALM 0 0 0 0 1012.4 1011.1 0.0
01/03:00am 25.5 29.2 19.9 71 3.7 CALM 0 2 0 1 1012.5 1011.2 0.0
01/02:30am 26.5 30.4 20.3 68 4.1 CALM 0 0 0 0 1012.7 1011.4 0.0
01/02:00am 26.5 29.1 20.1 68 4.2 S 6 6 3 3 1013.0 1011.8 0.0
01/01:30am 26.6 30.5 20.4 69 4.1 CALM 0 0 0 0 1013.1 1011.9 0.0
01/01:00am 26.9 30.6 20.0 66 4.5 CALM 0 0 0 0 1013.3 1012.1 0.0
01/12:30am 27.0 30.7 19.9 65 4.7 CALM 0 0 0 0 1013.6 1012.3 0.0
01/12:00am 27.2 30.4 19.8 64 4.9 NNE 2 4 1 2 1013.9 1012.6 0.0
 
Date/Time
CST
Temp
°C
App
Temp
°C
Dew
Point
Rel
Hum
%
Delta-T
°C
Wind Press
QNH
hPa
Press
MSL
hPa
Rain
since 9 am
mm
Dir
 
Spd
km/h
Gust
km/h
Spd
kts
Gust
kts
30/11:30pm 27.3 29.7 19.6 62 5.0 NNE 6 9 3 5 1013.8 1012.5 0.0
30/11:00pm 27.8 30.8 20.1 63 5.1 NNE 4 6 2 3 1013.8 1012.5 0.0
30/10:30pm 28.2 31.5 20.0 61 5.4 N 2 4 1 2 1013.9 1012.6 0.0

Other Formats:

Comma delimited format used in spreadsheet applications
http://www.bom.gov.au/fwo/IDD60801/IDD60801.94234.axf

JavaScript Object Notation format (JSON) in row-major order
http://www.bom.gov.au/fwo/IDD60801/IDD60801.94234.json